Time;durP1;ratioP1;P1;durP2;ratioP2;P2;SDS_P1;SDS_P2;PMS_P1;PMS_P2;Temp;Humidity;BMP_temperature;BMP_pressure;BME280_temperature;BME280_humidity;BME280_pressure;Samples;Min_cycle;Max_cycle;Signal;HPM_P1;HPM_P2
2023/07/04 00:03:08;;;;;;;;;;;;;;;15.38;62.37305;101008.2;;;;-67
2023/07/04 00:08:08;;;;;;;;;;;;;;;15.38;62.75391;101015.8;;;;-68
2023/07/04 00:11:35;;;;;;;0.2;0;;;;;;;;;;;;;-67
2023/07/04 00:13:08;;;;;;;;;;;;;;;15.35;63.09863;101020.2;;;;-67
2023/07/04 00:18:08;;;;;;;;;;;;;;;15.36;62.54883;101016.7;;;;-68
2023/07/04 00:23:08;;;;;;;;;;;;;;;15.32;62.56641;101011.1;;;;-68
2023/07/04 00:28:08;;;;;;;;;;;;;;;15.29;62.48242;101002;;;;-69
2023/07/04 00:33:08;;;;;;;;;;;;;;;15.27;62.41309;101002.9;;;;-68
2023/07/04 00:38:08;;;;;;;;;;;;;;;15.21;62.62891;101013.2;;;;-68
2023/07/04 00:41:37;;;;;;;0.2;0.1;;;;;;;;;;;;;-69
2023/07/04 00:43:09;;;;;;;;;;;;;;;15.19;62.67188;101011.5;;;;-69
2023/07/04 00:48:09;;;;;;;;;;;;;;;15.17;62.83691;101020.4;;;;-69
2023/07/04 00:53:11;;;;;;;;;;;;;;;15.15;63.51953;101027.2;;;;-67
2023/07/04 00:58:09;;;;;;;;;;;;;;;15.1;63.25391;101037.7;;;;-70
2023/07/04 01:03:10;;;;;;;;;;;;;;;15.06;63.26074;101034.6;;;;-67
2023/07/04 01:08:13;;;;;;;;;;;;;;;15.01;64.0166;101044.4;;;;-68
2023/07/04 01:11:44;;;;;;;0.2;0;;;;;;;;;;;;;-67
2023/07/04 01:13:08;;;;;;;;;;;;;;;15;63.53223;101044.4;;;;-68
2023/07/04 01:18:08;;;;;;;;;;;;;;;14.94;63.72559;101040.6;;;;-67
2023/07/04 01:23:14;;;;;;;;;;;;;;;14.89;64.29199;101044.9;;;;-67
2023/07/04 01:28:08;;;;;;;;;;;;;;;14.87;63.75977;101040.7;;;;-69
2023/07/04 01:33:09;;;;;;;;;;;;;;;14.81;64.23535;101046.2;;;;-68
2023/07/04 01:38:09;;;;;;;;;;;;;;;14.81;64.08887;101044;;;;-69
2023/07/04 01:41:42;;;;;;;0.2;0;;;;;;;;;;;;;-68
2023/07/04 01:43:10;;;;;;;;;;;;;;;14.79;63.80566;101042.2;;;;-68
2023/07/04 01:48:08;;;;;;;;;;;;;;;14.75;64.38281;101049.5;;;;-68
2023/07/04 01:53:08;;;;;;;;;;;;;;;14.71;63.96191;101045.9;;;;-68
2023/07/04 01:58:08;;;;;;;;;;;;;;;14.69;63.68848;101044.2;;;;-68
2023/07/04 02:03:08;;;;;;;;;;;;;;;14.62;63.78027;101036.3;;;;-68
2023/07/04 02:08:08;;;;;;;;;;;;;;;14.57;63.76172;101031;;;;-72
2023/07/04 02:11:45;;;;;;;0.2;0;;;;;;;;;;;;;-68
2023/07/04 02:13:08;;;;;;;;;;;;;;;14.52;63.66504;101030.3;;;;-68
2023/07/04 02:18:08;;;;;;;;;;;;;;;14.48;63.8623;101023;;;;-68
2023/07/04 02:23:13;;;;;;;;;;;;;;;14.45;63.39648;101024;;;;-68
2023/07/04 02:28:09;;;;;;;;;;;;;;;14.4;63.6709;101025.5;;;;-67
2023/07/04 02:33:08;;;;;;;;;;;;;;;14.38;63.81348;101025.9;;;;-68
2023/07/04 02:38:08;;;;;;;;;;;;;;;14.35;64.15625;101034.8;;;;-69
2023/07/04 02:41:46;;;;;;;0.2;0;;;;;;;;;;;;;-66
2023/07/04 02:43:08;;;;;;;;;;;;;;;14.3;63.83398;101038.9;;;;-68
2023/07/04 02:48:08;;;;;;;;;;;;;;;14.26;63.49414;101036.4;;;;-68
2023/07/04 02:53:08;;;;;;;;;;;;;;;14.25;63.52441;101033.8;;;;-70
2023/07/04 02:58:08;;;;;;;;;;;;;;;14.23;63.27441;101033.7;;;;-68
2023/07/04 03:03:08;;;;;;;;;;;;;;;14.19;63.41602;101036.1;;;;-68
2023/07/04 03:08:08;;;;;;;;;;;;;;;14.15;63.35352;101029.6;;;;-68
2023/07/04 03:11:48;;;;;;;0.2;0.1;;;;;;;;;;;;;-69
2023/07/04 03:13:08;;;;;;;;;;;;;;;14.12;63.0918;101032.5;;;;-68
2023/07/04 03:18:08;;;;;;;;;;;;;;;14.12;63.14746;101030.8;;;;-67
2023/07/04 03:23:08;;;;;;;;;;;;;;;14.1;62.76367;101038.2;;;;-70
2023/07/04 03:28:08;;;;;;;;;;;;;;;14.05;62.98047;101036.8;;;;-68
2023/07/04 03:33:08;;;;;;;;;;;;;;;14.05;62.79004;101043.9;;;;-68
2023/07/04 03:38:08;;;;;;;;;;;;;;;14.03;62.66406;101042.6;;;;-69
2023/07/04 03:41:50;;;;;;;0.2;0.1;;;;;;;;;;;;;-68
2023/07/04 03:43:08;;;;;;;;;;;;;;;14.05;62.59863;101052.5;;;;-68
2023/07/04 03:48:08;;;;;;;;;;;;;;;14;62.86133;101044.9;;;;-67
2023/07/04 03:53:08;;;;;;;;;;;;;;;14;62.74902;101048.1;;;;-67
2023/07/04 03:58:08;;;;;;;;;;;;;;;14.02;62.68457;101050.9;;;;-68
2023/07/04 04:03:08;;;;;;;;;;;;;;;14.01;62.68359;101057.2;;;;-69
2023/07/04 04:08:08;;;;;;;;;;;;;;;14.03;62.59473;101052.9;;;;-67
2023/07/04 04:11:53;;;;;;;0.2;0.1;;;;;;;;;;;;;-68
2023/07/04 04:13:08;;;;;;;;;;;;;;;14.03;62.6748;101051.4;;;;-67
2023/07/04 04:18:08;;;;;;;;;;;;;;;14.08;62.58008;101049.9;;;;-67
2023/07/04 04:23:08;;;;;;;;;;;;;;;14.1;62.58398;101049.5;;;;-68
2023/07/04 04:28:08;;;;;;;;;;;;;;;14.16;62.54883;101049.5;;;;-67
2023/07/04 04:33:09;;;;;;;;;;;;;;;14.19;62.29395;101051.1;;;;-68
2023/07/04 04:38:10;;;;;;;;;;;;;;;14.22;62.58984;101057;;;;-70
2023/07/04 04:41:55;;;;;;;0.2;0.1;;;;;;;;;;;;;-68
2023/07/04 04:43:08;;;;;;;;;;;;;;;14.27;62.33887;101060.8;;;;-68
2023/07/04 04:48:08;;;;;;;;;;;;;;;14.3;62.26367;101064.3;;;;-67
2023/07/04 04:53:14;;;;;;;;;;;;;;;14.34;62.61816;101065.6;;;;-68
2023/07/04 04:58:08;;;;;;;;;;;;;;;14.39;62.28906;101067.7;;;;-68
2023/07/04 05:03:08;;;;;;;;;;;;;;;14.45;62.16211;101069.1;;;;-69
2023/07/04 05:08:08;;;;;;;;;;;;;;;14.51;62.03613;101072.2;;;;-68
2023/07/04 05:11:56;;;;;;;0.2;0.1;;;;;;;;;;;;;-68
2023/07/04 05:13:08;;;;;;;;;;;;;;;14.56;62.15527;101075.9;;;;-69
2023/07/04 05:18:10;;;;;;;;;;;;;;;14.62;62.09668;101077;;;;-68
2023/07/04 05:23:08;;;;;;;;;;;;;;;14.69;61.95996;101076.8;;;;-68
2023/07/04 05:28:08;;;;;;;;;;;;;;;14.76;61.86914;101077.5;;;;-67
2023/07/04 05:33:08;;;;;;;;;;;;;;;14.88;61.84082;101072;;;;-69
2023/07/04 05:38:08;;;;;;;;;;;;;;;14.94;61.86035;101076.5;;;;-71
2023/07/04 05:41:59;;;;;;;0.2;0.1;;;;;;;;;;;;;-67
2023/07/04 05:43:08;;;;;;;;;;;;;;;15.01;61.73633;101092.1;;;;-68
2023/07/04 05:48:08;;;;;;;;;;;;;;;15.08;61.9248;101099.5;;;;-67
2023/07/04 05:53:09;;;;;;;;;;;;;;;15.18;61.65723;101091.4;;;;-67
2023/07/04 05:58:08;;;;;;;;;;;;;;;15.25;61.74707;101100.8;;;;-68
2023/07/04 06:03:08;;;;;;;;;;;;;;;15.36;61.59277;101106.9;;;;-68
2023/07/04 06:08:08;;;;;;;;;;;;;;;15.51;61.64844;101105.1;;;;-68
2023/07/04 06:12:01;;;;;;;0.2;0.1;;;;;;;;;;;;;-66
2023/07/04 06:13:08;;;;;;;;;;;;;;;15.88;61.9375;101113.6;;;;-67
2023/07/04 06:18:08;;;;;;;;;;;;;;;16.12;61.22656;101119.3;;;;-67
2023/07/04 06:23:08;;;;;;;;;;;;;;;16.33;60.56738;101112.9;;;;-68
2023/07/04 06:28:08;;;;;;;;;;;;;;;16.65;59.74219;101127.3;;;;-68
2023/07/04 06:33:09;;;;;;;;;;;;;;;17.08;59.29297;101118.4;;;;-68
2023/07/04 06:38:08;;;;;;;;;;;;;;;17.39;58.36035;101123.1;;;;-66
2023/07/04 06:42:03;;;;;;;0.2;0.1;;;;;;;;;;;;;-67
2023/07/04 06:43:09;;;;;;;;;;;;;;;17.56;58.34863;101133;;;;-68
2023/07/04 06:48:09;;;;;;;;;;;;;;;17.65;58.05566;101132.9;;;;-69
2023/07/04 06:53:08;;;;;;;;;;;;;;;17.62;58.02734;101150.4;;;;-68
2023/07/04 06:58:08;;;;;;;;;;;;;;;17.53;58.74121;101144.7;;;;-67
2023/07/04 07:03:09;;;;;;;;;;;;;;;17.6;58.67188;101146.8;;;;-68
2023/07/04 07:08:08;;;;;;;;;;;;;;;17.63;58.70898;101145.5;;;;-66
2023/07/04 07:12:06;;;;;;;0.2;0;;;;;;;;;;;;;-67
2023/07/04 07:13:08;;;;;;;;;;;;;;;17.69;59.37305;101151.3;;;;-68
2023/07/04 07:18:08;;;;;;;;;;;;;;;17.78;59.09082;101155.8;;;;-69
2023/07/04 07:23:09;;;;;;;;;;;;;;;17.92;59.08691;101154.4;;;;-68
2023/07/04 07:28:08;;;;;;;;;;;;;;;18.03;58.77246;101157;;;;-68
2023/07/04 07:33:09;;;;;;;;;;;;;;;18.07;58.63086;101159.5;;;;-69
2023/07/04 07:38:08;;;;;;;;;;;;;;;18.23;58.47168;101166.9;;;;-67
2023/07/04 07:42:10;;;;;;;0.2;0.1;;;;;;;;;;;;;-67
2023/07/04 07:43:08;;;;;;;;;;;;;;;18.47;58.00293;101179.4;;;;-68
2023/07/04 07:48:10;;;;;;;;;;;;;;;18.77;57.72559;101182.3;;;;-67
2023/07/04 07:53:08;;;;;;;;;;;;;;;19.04;57.06738;101179.8;;;;-67
2023/07/04 07:58:08;;;;;;;;;;;;;;;18.95;56.5791;101181.3;;;;-68
2023/07/04 08:03:09;;;;;;;;;;;;;;;18.95;56.46582;101189;;;;-67
2023/07/04 08:08:16;;;;;;;;;;;;;;;18.93;56.69043;101187.7;;;;-68
2023/07/04 08:12:12;;;;;;;0.2;0.1;;;;;;;;;;;;;-69
2023/07/04 08:13:08;;;;;;;;;;;;;;;18.91;56.52734;101190.2;;;;-67
2023/07/04 08:18:11;;;;;;;;;;;;;;;19.2;56.56445;101196.5;;;;-68
2023/07/04 08:23:08;;;;;;;;;;;;;;;19.86;55.21484;101204.7;;;;-67
2023/07/04 08:28:08;;;;;;;;;;;;;;;20.37;54.14941;101203.6;;;;-67
2023/07/04 08:33:08;;;;;;;;;;;;;;;20.72;53.07227;101198.6;;;;-68
2023/07/04 08:38:08;;;;;;;;;;;;;;;20.7;52.66992;101208.4;;;;-69
2023/07/04 08:42:15;;;;;;;0.2;0.1;;;;;;;;;;;;;-68
2023/07/04 08:43:09;;;;;;;;;;;;;;;20.68;52.9873;101206.9;;;;-68
2023/07/04 08:48:09;;;;;;;;;;;;;;;20.95;52.68848;101208.5;;;;-68
2023/07/04 08:53:11;;;;;;;;;;;;;;;21.11;51.81738;101216.3;;;;-68
2023/07/04 08:58:08;;;;;;;;;;;;;;;21.36;51.27344;101211.3;;;;-68
2023/07/04 09:03:18;;;;;;;;;;;;;;;21.65;50.49414;101225.5;;;;-67
2023/07/04 09:08:12;;;;;;;;;;;;;;;21.59;50.30469;101235;;;;-68
2023/07/04 09:12:17;;;;;;;0.2;0;;;;;;;;;;;;;-68
2023/07/04 09:13:09;;;;;;;;;;;;;;;21.49;50.23535;101231.1;;;;-68
2023/07/04 09:18:16;;;;;;;;;;;;;;;21.54;50.31055;101235.7;;;;-67
2023/07/04 09:23:13;;;;;;;;;;;;;;;21.63;50.1377;101235.7;;;;-68
2023/07/04 09:28:08;;;;;;;;;;;;;;;21.69;50.25879;101232.7;;;;-68
2023/07/04 09:33:09;;;;;;;;;;;;;;;21.81;49.68652;101241.8;;;;-69
2023/07/04 09:38:08;;;;;;;;;;;;;;;21.93;49.60938;101234.3;;;;-66
2023/07/04 09:42:21;;;;;;;0.3;0.1;;;;;;;;;;;;;-67
2023/07/04 09:43:08;;;;;;;;;;;;;;;22.06;48.91309;101238.4;;;;-68
2023/07/04 09:48:09;;;;;;;;;;;;;;;21.93;48.69238;101242.8;;;;-68
2023/07/04 09:53:10;;;;;;;;;;;;;;;22.13;48.97754;101247.9;;;;-68
2023/07/04 09:58:19;;;;;;;;;;;;;;;22.71;47.58203;101251.4;;;;-67
2023/07/04 10:03:08;;;;;;;;;;;;;;;22.91;46.86914;101263.6;;;;-67
2023/07/04 10:08:09;;;;;;;;;;;;;;;22.88;46.55469;101262.6;;;;-67
2023/07/04 10:12:25;;;;;;;0.2;0.1;;;;;;;;;;;;;-68
2023/07/04 10:13:09;;;;;;;;;;;;;;;22.95;46.57227;101285.5;;;;-67
2023/07/04 10:18:08;;;;;;;;;;;;;;;23.06;45.96387;101276.3;;;;-66
2023/07/04 10:23:08;;;;;;;;;;;;;;;23.35;45.58008;101268.4;;;;-68
2023/07/04 10:28:14;;;;;;;;;;;;;;;23.16;44.24805;101271.4;;;;-67
2023/07/04 10:33:13;;;;;;;;;;;;;;;23.05;46.37695;101275;;;;-67
2023/07/04 10:38:11;;;;;;;;;;;;;;;22.87;45.53027;101282.6;;;;-67
2023/07/04 10:42:30;;;;;;;1.4;0.1;;;;;;;;;;;;;-68
2023/07/04 10:43:11;;;;;;;;;;;;;;;22.5;45.94141;101284;;;;-67
2023/07/04 10:48:12;;;;;;;;;;;;;;;22.51;45.05762;101282.8;;;;-67
2023/07/04 10:53:08;;;;;;;;;;;;;;;22.25;46.49023;101279.3;;;;-68
2023/07/04 10:58:12;;;;;;;;;;;;;;;22.46;45.5;101283.7;;;;-65
2023/07/04 11:03:11;;;;;;;;;;;;;;;22.44;46.10742;101286.6;;;;-69
2023/07/04 11:08:10;;;;;;;;;;;;;;;22.36;46.52344;101287.4;;;;-67
2023/07/04 11:12:33;;;;;;;0.2;0;;;;;;;;;;;;;-69
2023/07/04 11:13:09;;;;;;;;;;;;;;;22.21;47.09375;101287;;;;-68
2023/07/04 11:18:09;;;;;;;;;;;;;;;22.32;46.83008;101284;;;;-68
2023/07/04 11:23:16;;;;;;;;;;;;;;;22.63;46.87402;101288.6;;;;-65
2023/07/04 11:28:21;;;;;;;;;;;;;;;22.73;46.19531;101282.9;;;;-68
2023/07/04 11:33:10;;;;;;;;;;;;;;;23.05;45.82422;101287.8;;;;-68
2023/07/04 11:38:16;;;;;;;;;;;;;;;23.2;45.3457;101293.8;;;;-68
2023/07/04 11:42:44;;;;;;;0.2;0;;;;;;;;;;;;;-68
2023/07/04 11:43:09;;;;;;;;;;;;;;;23.24;45.03906;101305.6;;;;-73
2023/07/04 11:48:10;;;;;;;;;;;;;;;23.12;45.82129;101300.9;;;;-73
2023/07/04 11:53:14;;;;;;;;;;;;;;;22.86;45.8291;101306.5;;;;-69
2023/07/04 11:58:20;;;;;;;;;;;;;;;23.19;45.97754;101299.9;;;;-71
2023/07/04 12:03:20;;;;;;;;;;;;;;;23.23;45.49805;101306.6;;;;-71
2023/07/04 12:08:10;;;;;;;;;;;;;;;23.48;46.84863;101304.8;;;;-72
2023/07/04 12:12:43;;;;;;;0.2;0;;;;;;;;;;;;;-72
2023/07/04 12:13:10;;;;;;;;;;;;;;;23.7;46.40918;101306.8;;;;-71
2023/07/04 12:18:17;;;;;;;;;;;;;;;23.7;46.4668;101301.3;;;;-68
2023/07/04 12:23:11;;;;;;;;;;;;;;;23.63;46.41406;101306.1;;;;-67
2023/07/04 12:28:08;;;;;;;;;;;;;;;23.6;46.5498;101310.9;;;;-67
2023/07/04 12:33:08;;;;;;;;;;;;;;;23.39;45.04199;101320.3;;;;-67
2023/07/04 12:38:08;;;;;;;;;;;;;;;23.43;44.12695;101312;;;;-67
2023/07/04 12:42:44;;;;;;;0.2;0;;;;;;;;;;;;;-68
2023/07/04 12:43:09;;;;;;;;;;;;;;;23.18;45.14746;101308.6;;;;-67
2023/07/04 12:48:09;;;;;;;;;;;;;;;23.4;44.76758;101312.7;;;;-68
2023/07/04 12:53:09;;;;;;;;;;;;;;;23.2;44.59766;101316.2;;;;-67
2023/07/04 12:58:08;;;;;;;;;;;;;;;23.39;44.22461;101322.9;;;;-68
2023/07/04 13:03:10;;;;;;;;;;;;;;;23.36;43.8418;101314.5;;;;-69
2023/07/04 13:08:12;;;;;;;;;;;;;;;23.34;43.75977;101317.1;;;;-67
2023/07/04 13:12:48;;;;;;;0.2;0;;;;;;;;;;;;;-67
2023/07/04 13:13:08;;;;;;;;;;;;;;;23.26;42.41602;101313.6;;;;-68
2023/07/04 13:18:09;;;;;;;;;;;;;;;23.47;43.86328;101317.6;;;;-69
2023/07/04 13:23:19;;;;;;;;;;;;;;;23.43;42.55859;101314.9;;;;-67
2023/07/04 13:28:13;;;;;;;;;;;;;;;23.61;43.91309;101312.1;;;;-67
2023/07/04 13:33:18;;;;;;;;;;;;;;;23.85;43.25586;101314.6;;;;-67
2023/07/04 13:38:09;;;;;;;;;;;;;;;24.02;42.62598;101317.1;;;;-67
2023/07/04 13:43:04;;;;;;;0.3;0.2;;;;;;;;;;;;;-68
2023/07/04 13:43:18;;;;;;;;;;;;;;;23.93;42.34082;101316.1;;;;-68
2023/07/04 13:48:08;;;;;;;;;;;;;;;23.92;43.36621;101316.4;;;;-66
2023/07/04 13:53:09;;;;;;;;;;;;;;;24.01;42.45313;101312.1;;;;-67
2023/07/04 13:58:08;;;;;;;;;;;;;;;24.22;43.2334;101312.4;;;;-66
2023/07/04 14:03:09;;;;;;;;;;;;;;;24.46;43.62695;101308.9;;;;-67
2023/07/04 14:08:08;;;;;;;;;;;;;;;24.49;42.20898;101304.7;;;;-67
2023/07/04 14:12:57;;;;;;;0.2;0;;;;;;;;;;;;;-68
2023/07/04 14:13:10;;;;;;;;;;;;;;;24.56;43.61328;101303.8;;;;-67
2023/07/04 14:18:08;;;;;;;;;;;;;;;24.76;42.63867;101300.9;;;;-67
2023/07/04 14:23:08;;;;;;;;;;;;;;;24.58;41.38574;101306.8;;;;-68
2023/07/04 14:28:08;;;;;;;;;;;;;;;24.75;42.51172;101303;;;;-67
2023/07/04 14:33:08;;;;;;;;;;;;;;;24.93;43.42871;101303.9;;;;-67
2023/07/04 14:38:08;;;;;;;;;;;;;;;24.94;42.05469;101307.2;;;;-67
2023/07/04 14:43:01;;;;;;;0.2;0;;;;;;;;;;;;;-67
2023/07/04 14:43:11;;;;;;;;;;;;;;;24.94;42.10156;101297.3;;;;-69
2023/07/04 14:48:08;;;;;;;;;;;;;;;24.98;42.20898;101302;;;;-68
2023/07/04 14:53:08;;;;;;;;;;;;;;;24.82;41.74219;101306.2;;;;-66
2023/07/04 14:58:08;;;;;;;;;;;;;;;24.76;42.10742;101298.2;;;;-67
2023/07/04 15:03:08;;;;;;;;;;;;;;;24.61;42.49707;101302.1;;;;-67
2023/07/04 15:08:08;;;;;;;;;;;;;;;24.54;41.83301;101306.7;;;;-68
2023/07/04 15:13:05;;;;;;;0.2;0;;;;;;;;;;;;;-67
2023/07/04 15:13:15;;;;;;;;;;;;;;;24.37;42.97168;101299.9;;;;-69
2023/07/04 15:18:08;;;;;;;;;;;;;;;24.32;41.89258;101294.6;;;;-71
2023/07/04 15:23:08;;;;;;;;;;;;;;;24.3;42.23828;101286.8;;;;-67
2023/07/04 15:28:08;;;;;;;;;;;;;;;24.31;43.06934;101285.8;;;;-69
2023/07/04 15:33:08;;;;;;;;;;;;;;;24.2;42.52832;101279.8;;;;-67
2023/07/04 15:38:08;;;;;;;;;;;;;;;24.12;42.51953;101275.6;;;;-68
2023/07/04 15:43:08;;;;;;;;;;;;;;;24.07;42.91992;101269.4;;;;-68
2023/07/04 15:43:17;;;;;;;0.2;0.1;;;;;;;;;;;;;-68
2023/07/04 15:48:10;;;;;;;;;;;;;;;23.98;42.56543;101269.4;;;;-67
2023/07/04 15:53:08;;;;;;;;;;;;;;;23.89;42.69434;101271.9;;;;-69
2023/07/04 15:58:08;;;;;;;;;;;;;;;23.8;43.52832;101268;;;;-68
2023/07/04 16:03:08;;;;;;;;;;;;;;;23.65;42.94824;101257.1;;;;-68
2023/07/04 16:08:08;;;;;;;;;;;;;;;23.59;43.44922;101255.7;;;;-68
2023/07/04 16:13:08;;;;;;;;;;;;;;;23.51;43.53418;101248;;;;-67
2023/07/04 16:13:17;;;;;;;0.2;0;;;;;;;;;;;;;-67
2023/07/04 16:18:08;;;;;;;;;;;;;;;23.44;43.9541;101245.3;;;;-67
2023/07/04 16:23:08;;;;;;;;;;;;;;;23.37;44.0498;101235.8;;;;-66
2023/07/04 16:28:08;;;;;;;;;;;;;;;23.26;44.62695;101222.1;;;;-67
2023/07/04 16:33:08;;;;;;;;;;;;;;;23.19;44.76855;101214.1;;;;-69
2023/07/04 16:38:08;;;;;;;;;;;;;;;23.1;44.80664;101213.3;;;;-67
2023/07/04 16:43:08;;;;;;;;;;;;;;;23.03;44.84473;101205.3;;;;-67
2023/07/04 16:43:18;;;;;;;0.2;0.1;;;;;;;;;;;;;-67
2023/07/04 16:48:08;;;;;;;;;;;;;;;22.97;45.16211;101198.1;;;;-68
2023/07/04 16:53:08;;;;;;;;;;;;;;;22.9;45.25781;101196.6;;;;-68
2023/07/04 16:58:08;;;;;;;;;;;;;;;22.82;45.27246;101193;;;;-67
2023/07/04 17:03:08;;;;;;;;;;;;;;;22.74;45.42578;101194.3;;;;-66
2023/07/04 17:08:08;;;;;;;;;;;;;;;22.66;45.44141;101193.8;;;;-68
2023/07/04 17:13:08;;;;;;;;;;;;;;;22.6;45.65332;101185.5;;;;-68
2023/07/04 17:13:22;;;;;;;0.3;0.1;;;;;;;;;;;;;-70
2023/07/04 17:18:08;;;;;;;;;;;;;;;22.56;45.83203;101189;;;;-67
2023/07/04 17:23:08;;;;;;;;;;;;;;;22.49;45.87207;101187.5;;;;-70
2023/07/04 17:28:08;;;;;;;;;;;;;;;22.44;45.93457;101181.9;;;;-67
2023/07/04 17:33:08;;;;;;;;;;;;;;;22.36;46.04102;101182.5;;;;-67
2023/07/04 17:38:08;;;;;;;;;;;;;;;22.3;46.13867;101175;;;;-66
2023/07/04 17:43:08;;;;;;;;;;;;;;;22.23;46.24609;101168.8;;;;-66
2023/07/04 17:43:27;;;;;;;0.2;0;;;;;;;;;;;;;-67
2023/07/04 17:48:08;;;;;;;;;;;;;;;22.16;46.33203;101161.2;;;;-68
2023/07/04 17:53:08;;;;;;;;;;;;;;;22.1;46.38281;101159.1;;;;-67
2023/07/04 17:58:08;;;;;;;;;;;;;;;22.04;46.43262;101157.5;;;;-67
2023/07/04 18:03:08;;;;;;;;;;;;;;;21.98;46.47363;101151.5;;;;-67
2023/07/04 18:08:09;;;;;;;;;;;;;;;21.92;46.57031;101150.2;;;;-66
2023/07/04 18:13:08;;;;;;;;;;;;;;;21.85;46.63086;101147.8;;;;-66
2023/07/04 18:13:29;;;;;;;0.2;0;;;;;;;;;;;;;-66
2023/07/04 18:18:08;;;;;;;;;;;;;;;21.75;46.69043;101138.2;;;;-67
2023/07/04 18:23:08;;;;;;;;;;;;;;;21.64;46.76953;101123.5;;;;-66
2023/07/04 18:28:08;;;;;;;;;;;;;;;21.55;46.75977;101112.5;;;;-66
2023/07/04 18:33:08;;;;;;;;;;;;;;;21.46;46.83203;101110.3;;;;-68
2023/07/04 18:38:08;;;;;;;;;;;;;;;21.38;46.57031;101099.7;;;;-67
2023/07/04 18:43:08;;;;;;;;;;;;;;;21.31;46.15137;101097;;;;-66
2023/07/04 18:43:33;;;;;;;0.2;0;;;;;;;;;;;;;-66
2023/07/04 18:48:08;;;;;;;;;;;;;;;21.21;46.2207;101089.9;;;;-69
2023/07/04 18:53:08;;;;;;;;;;;;;;;21.11;45.83301;101085.4;;;;-66
2023/07/04 18:58:08;;;;;;;;;;;;;;;20.99;46.01465;101076;;;;-67
2023/07/04 19:03:08;;;;;;;;;;;;;;;20.88;46.27832;101076;;;;-67
2023/07/04 19:08:08;;;;;;;;;;;;;;;20.78;46.02734;101066.9;;;;-67
2023/07/04 19:13:07;;;;;;;;;;;;;;;20.65;46.04883;101063.6;;;;-67
2023/07/04 19:13:36;;;;;;;0.2;0;;;;;;;;;;;;;-67
2023/07/04 19:18:08;;;;;;;;;;;;;;;20.55;46.20898;101054.5;;;;-67
2023/07/04 19:23:08;;;;;;;;;;;;;;;20.44;46.43848;101047.2;;;;-68
2023/07/04 19:28:09;;;;;;;;;;;;;;;20.31;46.60742;101037.8;;;;-68
2023/07/04 19:33:08;;;;;;;;;;;;;;;20.22;46.76953;101035;;;;-67
2023/07/04 19:38:09;;;;;;;;;;;;;;;20.11;46.89648;101028.4;;;;-67
2023/07/04 19:43:08;;;;;;;;;;;;;;;20;46.94043;101026.8;;;;-67
2023/07/04 19:43:39;;;;;;;0.2;0;;;;;;;;;;;;;-69
2023/07/04 19:48:09;;;;;;;;;;;;;;;19.88;47.13281;101016.5;;;;-67
2023/07/04 19:53:08;;;;;;;;;;;;;;;19.77;47.32715;100997;;;;-67
2023/07/04 19:58:08;;;;;;;;;;;;;;;19.65;47.57617;100988.5;;;;-66
2023/07/04 20:03:08;;;;;;;;;;;;;;;19.56;47.7832;100981.1;;;;-68
2023/07/04 20:08:08;;;;;;;;;;;;;;;19.46;48.05762;100982.7;;;;-68
2023/07/04 20:13:08;;;;;;;;;;;;;;;19.36;48.21875;100976.9;;;;-68
2023/07/04 20:13:42;;;;;;;0.2;0;;;;;;;;;;;;;-67
2023/07/04 20:18:08;;;;;;;;;;;;;;;19.27;48.44824;100973;;;;-67
2023/07/04 20:23:10;;;;;;;;;;;;;;;19.21;48.52148;100963.8;;;;-69
2023/07/04 20:28:08;;;;;;;;;;;;;;;19.12;48.9209;100959.4;;;;-68
2023/07/04 20:33:08;;;;;;;;;;;;;;;19.06;49.08594;100956.6;;;;-67
2023/07/04 20:38:08;;;;;;;;;;;;;;;18.98;49.13379;100956.4;;;;-73
2023/07/04 20:43:09;;;;;;;;;;;;;;;18.93;49.49219;100930.6;;;;-67
2023/07/04 20:43:45;;;;;;;0.2;0.1;;;;;;;;;;;;;-68
2023/07/04 20:48:09;;;;;;;;;;;;;;;18.87;49.83887;100922.1;;;;-67
2023/07/04 20:53:08;;;;;;;;;;;;;;;18.83;50.07227;100916.3;;;;-67
2023/07/04 20:58:08;;;;;;;;;;;;;;;18.78;50.2832;100916.5;;;;-67
2023/07/04 21:03:08;;;;;;;;;;;;;;;18.72;50.6416;100918.3;;;;-66
2023/07/04 21:08:08;;;;;;;;;;;;;;;18.67;51.03223;100918.6;;;;-66
2023/07/04 21:13:08;;;;;;;;;;;;;;;18.6;51.50293;100905.7;;;;-67
2023/07/04 21:13:48;;;;;;;0.2;0.1;;;;;;;;;;;;;-67
2023/07/04 21:18:08;;;;;;;;;;;;;;;18.56;51.99707;100898.1;;;;-68
2023/07/04 21:23:08;;;;;;;;;;;;;;;18.49;52.36328;100888.5;;;;-68
2023/07/04 21:28:08;;;;;;;;;;;;;;;18.42;52.28906;100872.1;;;;-67
2023/07/04 21:33:08;;;;;;;;;;;;;;;18.36;52.69043;100855.8;;;;-66
2023/07/04 21:38:07;;;;;;;;;;;;;;;18.3;52.93262;100858.8;;;;-67
2023/07/04 21:43:08;;;;;;;;;;;;;;;18.24;53.10645;100853;;;;-66
2023/07/04 21:43:55;;;;;;;0.2;0;;;;;;;;;;;;;-66
2023/07/04 21:48:22;;;;;;;;;;;;;;;18.18;53.69043;100840.5;;;;-67
2023/07/04 21:53:08;;;;;;;;;;;;;;;18.14;54.17383;100827.3;;;;-68
2023/07/04 21:58:10;;;;;;;;;;;;;;;18.09;54.88184;100818.7;;;;-67
2023/07/04 22:03:08;;;;;;;;;;;;;;;18.04;55.47656;100798.4;;;;-67
2023/07/04 22:08:08;;;;;;;;;;;;;;;18.01;55.33691;100792.9;;;;-67
2023/07/04 22:13:08;;;;;;;;;;;;;;;17.98;55.37793;100780.6;;;;-68
2023/07/04 22:13:54;;;;;;;0.2;0.1;;;;;;;;;;;;;-67
2023/07/04 22:18:09;;;;;;;;;;;;;;;17.94;56.14453;100777.6;;;;-67
2023/07/04 22:23:08;;;;;;;;;;;;;;;17.88;56.60059;100762.5;;;;-67
2023/07/04 22:28:08;;;;;;;;;;;;;;;17.86;56.9375;100750.5;;;;-67
2023/07/04 22:33:08;;;;;;;;;;;;;;;17.8;57.73438;100749.6;;;;-68
2023/07/04 22:38:08;;;;;;;;;;;;;;;17.73;57.69238;100748.3;;;;-67
2023/07/04 22:43:08;;;;;;;;;;;;;;;17.68;58.02539;100735.6;;;;-67
2023/07/04 22:43:57;;;;;;;0.2;0.1;;;;;;;;;;;;;-68
2023/07/04 22:48:08;;;;;;;;;;;;;;;17.6;58.42285;100705.4;;;;-67
2023/07/04 22:53:08;;;;;;;;;;;;;;;17.54;58.69629;100690.7;;;;-67
2023/07/04 22:58:10;;;;;;;;;;;;;;;17.47;59.01563;100676.4;;;;-67
2023/07/04 23:03:08;;;;;;;;;;;;;;;17.4;58.91699;100650.5;;;;-67
2023/07/04 23:08:08;;;;;;;;;;;;;;;17.37;59.24023;100616;;;;-67
2023/07/04 23:13:08;;;;;;;;;;;;;;;17.32;59.30176;100599.3;;;;-68
2023/07/04 23:13:59;;;;;;;0.3;0.2;;;;;;;;;;;;;-66
2023/07/04 23:18:08;;;;;;;;;;;;;;;17.27;60.14258;100584.4;;;;-67
2023/07/04 23:23:08;;;;;;;;;;;;;;;17.23;59.97949;100573.2;;;;-66
2023/07/04 23:28:07;;;;;;;;;;;;;;;17.19;61.4873;100563.7;;;;-66
2023/07/04 23:33:07;;;;;;;;;;;;;;;17.14;62.39551;100554;;;;-66
2023/07/04 23:38:08;;;;;;;;;;;;;;;17.11;62.82129;100529.5;;;;-67
2023/07/04 23:43:08;;;;;;;;;;;;;;;17.04;63.38574;100510.8;;;;-66
2023/07/04 23:44:03;;;;;;;0.2;0;;;;;;;;;;;;;-67
2023/07/04 23:48:08;;;;;;;;;;;;;;;17.01;64.1709;100497.5;;;;-66
2023/07/04 23:53:08;;;;;;;;;;;;;;;16.97;64.83301;100475.5;;;;-66
2023/07/04 23:58:08;;;;;;;;;;;;;;;16.94;64.88379;100468.8;;;;-68
